Hauptseite
METAR-TAF:

METAR-TAF

Flughäfen :

Brighton, England

Flugplatz Shoreham

Breite: 50-50N, Länge: 000-17W, Höhe: 2 m

Beobachtung

Neuester Wetterbericht von vor 32 Minuten, um 09:20 UTC
Wind 7 kt aus Ost/Südost
Temperatur 17°C
Luftfeuchtigkeit 68%
Luftdruck 1024 hPa
Sichtweite 10 km oder mehr
keine Wolken unter 1500 m und keine Kumulonimbus oder Gewitterwolken

METAR: EGKA 190920Z 11007KT CAVOK 17/11 Q1024

Zeit: 10:52 (09:52 UTC)

Prognose

Neuester Wetterbericht von vor 1 Stunde und 56 Minuten, um 07:56 UTC
Gültige Prognose vom 19 um 09 UTC bis 19 um 18 UTC
Wind 4 kt aus Ost/Nordost
Sichtweite 10 km oder mehr
keine Wolken unter 1500 m und keine Kumulonimbus oder Gewitterwolken
Wahrscheinlichkeit 30% :
Zeitweise
vom 19 um 09 UTC bis 19 um 18 UTC
Sichtweite: 8000 m

TAF: EGKA 190756Z 1909/1918 07004KT CAVOK PROB30 TEMPO 1909/1918 8000

Wetterbeobachtungen und Prognosen von mehr als 4000 Flughäfen (METAR und TAF Bericht).

Die verfügbaren Stationen werden durch gelbe und rote Markierungen auf der Karte dargestellt.

Führen Sie die Maus auf sie, um den Namen der Station zu sehen.

Darauf klicken, um die Beobachtung von Wetterbeobachtungen und Prognosen zu sehen.

Um die Karte zu ändern : klicken Sie auf den grünen Tasten mit einem schwarzen Kreuz Zum Vergrößern, auf den grünen Button mit einem Gedankenstrich zu verkleinern, oder auf die grünen Pfeile für benachbarte Karten.


METAR-TAF: